sensor_id;sensor_type;location;lat;lon;timestamp;temperature;humidity
5802;DHT22;2927;49.366;8.530;2023-06-22T00:00:50;22.10;99.90
5802;DHT22;2927;49.366;8.530;2023-06-22T00:03:19;22.10;99.90
5802;DHT22;2927;49.366;8.530;2023-06-22T00:05:48;22.00;99.90
5802;DHT22;2927;49.366;8.530;2023-06-22T00:08:14;21.90;99.90
5802;DHT22;2927;49.366;8.530;2023-06-22T00:10:40;21.90;99.90
5802;DHT22;2927;49.366;8.530;2023-06-22T00:13:06;21.90;99.90
5802;DHT22;2927;49.366;8.530;2023-06-22T00:15:32;21.90;99.90
5802;DHT22;2927;49.366;8.530;2023-06-22T00:17:58;21.90;99.90
5802;DHT22;2927;49.366;8.530;2023-06-22T00:20:25;21.90;99.90
5802;DHT22;2927;49.366;8.530;2023-06-22T00:22:57;21.90;99.90
5802;DHT22;2927;49.366;8.530;2023-06-22T00:25:23;21.80;99.90
5802;DHT22;2927;49.366;8.530;2023-06-22T00:27:49;21.70;99.90
5802;DHT22;2927;49.366;8.530;2023-06-22T00:30:19;21.70;99.90
5802;DHT22;2927;49.366;8.530;2023-06-22T00:32:45;21.60;99.90
5802;DHT22;2927;49.366;8.530;2023-06-22T00:35:12;21.60;99.90
5802;DHT22;2927;49.366;8.530;2023-06-22T00:37:38;21.60;99.90
5802;DHT22;2927;49.366;8.530;2023-06-22T00:40:06;21.70;99.90
5802;DHT22;2927;49.366;8.530;2023-06-22T00:42:34;21.80;99.90
5802;DHT22;2927;49.366;8.530;2023-06-22T00:44:59;21.90;99.90
5802;DHT22;2927;49.366;8.530;2023-06-22T00:47:25;21.90;99.90
5802;DHT22;2927;49.366;8.530;2023-06-22T00:49:51;21.90;99.90
5802;DHT22;2927;49.366;8.530;2023-06-22T00:52:17;22.00;99.90
5802;DHT22;2927;49.366;8.530;2023-06-22T00:54:49;22.00;99.90
5802;DHT22;2927;49.366;8.530;2023-06-22T00:57:16;21.90;99.90
5802;DHT22;2927;49.366;8.530;2023-06-22T00:59:45;21.70;99.90
5802;DHT22;2927;49.366;8.530;2023-06-22T01:02:11;21.40;99.90
5802;DHT22;2927;49.366;8.530;2023-06-22T01:04:38;21.10;99.90
5802;DHT22;2927;49.366;8.530;2023-06-22T01:12:18;20.70;99.90
5802;DHT22;2927;49.366;8.530;2023-06-22T01:14:52;20.70;99.90
5802;DHT22;2927;49.366;8.530;2023-06-22T01:17:23;20.60;99.90
5802;DHT22;2927;49.366;8.530;2023-06-22T01:19:51;20.60;99.90
5802;DHT22;2927;49.366;8.530;2023-06-22T01:22:29;20.50;99.90
5802;DHT22;2927;49.366;8.530;2023-06-22T01:25:26;20.50;99.90
5802;DHT22;2927;49.366;8.530;2023-06-22T01:30:41;20.40;99.90
5802;DHT22;2927;49.366;8.530;2023-06-22T01:33:10;20.40;99.90
5802;DHT22;2927;49.366;8.530;2023-06-22T01:35:38;20.40;99.90
5802;DHT22;2927;49.366;8.530;2023-06-22T01:38:04;20.40;99.90
5802;DHT22;2927;49.366;8.530;2023-06-22T01:40:32;20.40;99.90
5802;DHT22;2927;49.366;8.530;2023-06-22T01:43:00;20.40;99.90
5802;DHT22;2927;49.366;8.530;2023-06-22T01:45:27;20.40;99.90
5802;DHT22;2927;49.366;8.530;2023-06-22T01:47:53;20.30;99.90
5802;DHT22;2927;49.366;8.530;2023-06-22T01:50:19;20.30;99.90
5802;DHT22;2927;49.366;8.530;2023-06-22T01:52:44;20.30;99.90
5802;DHT22;2927;49.366;8.530;2023-06-22T01:55:10;20.20;99.90
5802;DHT22;2927;49.366;8.530;2023-06-22T01:57:36;20.20;99.90
5802;DHT22;2927;49.366;8.530;2023-06-22T02:00:07;20.10;99.90
5802;DHT22;2927;49.366;8.530;2023-06-22T02:02:56;20.10;99.90
5802;DHT22;2927;49.366;8.530;2023-06-22T02:05:24;20.20;99.90
5802;DHT22;2927;49.366;8.530;2023-06-22T02:10:28;20.20;99.90
5802;DHT22;2927;49.366;8.530;2023-06-22T02:12:54;20.10;99.90
5802;DHT22;2927;49.366;8.530;2023-06-22T02:15:21;20.10;99.90
5802;DHT22;2927;49.366;8.530;2023-06-22T02:17:48;20.10;99.90
5802;DHT22;2927;49.366;8.530;2023-06-22T02:20:14;20.00;99.90
5802;DHT22;2927;49.366;8.530;2023-06-22T02:22:40;20.10;99.90
5802;DHT22;2927;49.366;8.530;2023-06-22T02:25:06;20.00;99.90
5802;DHT22;2927;49.366;8.530;2023-06-22T02:27:31;20.10;99.90
5802;DHT22;2927;49.366;8.530;2023-06-22T02:29:57;20.00;99.90
5802;DHT22;2927;49.366;8.530;2023-06-22T02:32:23;20.00;99.90
5802;DHT22;2927;49.366;8.530;2023-06-22T02:34:48;20.10;99.90
5802;DHT22;2927;49.366;8.530;2023-06-22T02:37:14;20.10;99.90
5802;DHT22;2927;49.366;8.530;2023-06-22T02:39:40;20.10;99.90
5802;DHT22;2927;49.366;8.530;2023-06-22T02:42:06;20.20;99.90
5802;DHT22;2927;49.366;8.530;2023-06-22T02:44:31;20.20;99.90
5802;DHT22;2927;49.366;8.530;2023-06-22T02:46:57;20.20;99.90
5802;DHT22;2927;49.366;8.530;2023-06-22T02:49:23;20.20;99.90
5802;DHT22;2927;49.366;8.530;2023-06-22T02:51:50;20.20;99.90
5802;DHT22;2927;49.366;8.530;2023-06-22T02:54:16;20.20;99.90
5802;DHT22;2927;49.366;8.530;2023-06-22T02:56:42;20.20;99.90
5802;DHT22;2927;49.366;8.530;2023-06-22T02:59:11;20.20;99.90
5802;DHT22;2927;49.366;8.530;2023-06-22T03:01:37;20.20;99.90
5802;DHT22;2927;49.366;8.530;2023-06-22T03:04:08;20.20;99.90
5802;DHT22;2927;49.366;8.530;2023-06-22T03:06:34;20.10;99.90
5802;DHT22;2927;49.366;8.530;2023-06-22T03:09:02;20.10;99.90
5802;DHT22;2927;49.366;8.530;2023-06-22T03:11:29;20.10;99.90
5802;DHT22;2927;49.366;8.530;2023-06-22T03:13:56;20.00;99.90
5802;DHT22;2927;49.366;8.530;2023-06-22T03:16:21;20.00;99.90
5802;DHT22;2927;49.366;8.530;2023-06-22T03:18:47;19.90;99.90
5802;DHT22;2927;49.366;8.530;2023-06-22T03:21:12;19.90;99.90
5802;DHT22;2927;49.366;8.530;2023-06-22T03:23:40;19.90;99.90
5802;DHT22;2927;49.366;8.530;2023-06-22T03:26:06;20.00;99.90
5802;DHT22;2927;49.366;8.530;2023-06-22T03:28:32;20.00;99.90
5802;DHT22;2927;49.366;8.530;2023-06-22T03:30:58;19.90;99.90
5802;DHT22;2927;49.366;8.530;2023-06-22T03:33:24;19.90;99.90
5802;DHT22;2927;49.366;8.530;2023-06-22T03:35:49;19.90;99.90
5802;DHT22;2927;49.366;8.530;2023-06-22T03:38:18;19.90;99.90
5802;DHT22;2927;49.366;8.530;2023-06-22T03:40:44;19.80;99.90
5802;DHT22;2927;49.366;8.530;2023-06-22T03:43:09;19.90;99.90
5802;DHT22;2927;49.366;8.530;2023-06-22T03:45:35;19.90;99.90
5802;DHT22;2927;49.366;8.530;2023-06-22T03:48:01;20.00;99.90
5802;DHT22;2927;49.366;8.530;2023-06-22T03:50:26;19.90;99.90
5802;DHT22;2927;49.366;8.530;2023-06-22T03:52:52;20.00;99.90
5802;DHT22;2927;49.366;8.530;2023-06-22T03:55:19;20.00;99.90
5802;DHT22;2927;49.366;8.530;2023-06-22T03:57:45;19.90;99.90
5802;DHT22;2927;49.366;8.530;2023-06-22T04:00:11;20.00;99.90
5802;DHT22;2927;49.366;8.530;2023-06-22T04:02:37;20.00;99.90
5802;DHT22;2927;49.366;8.530;2023-06-22T04:05:03;20.10;99.90
5802;DHT22;2927;49.366;8.530;2023-06-22T04:07:28;20.10;99.90
5802;DHT22;2927;49.366;8.530;2023-06-22T04:09:54;20.10;99.90
5802;DHT22;2927;49.366;8.530;2023-06-22T04:12:20;20.20;99.90
5802;DHT22;2927;49.366;8.530;2023-06-22T04:14:45;20.20;99.90
5802;DHT22;2927;49.366;8.530;2023-06-22T04:17:11;20.30;99.90
5802;DHT22;2927;49.366;8.530;2023-06-22T04:19:39;20.30;99.90
5802;DHT22;2927;49.366;8.530;2023-06-22T04:22:05;20.40;99.90
5802;DHT22;2927;49.366;8.530;2023-06-22T04:24:32;20.50;99.90
5802;DHT22;2927;49.366;8.530;2023-06-22T04:26:58;20.50;99.90
5802;DHT22;2927;49.366;8.530;2023-06-22T04:29:28;20.60;99.90
5802;DHT22;2927;49.366;8.530;2023-06-22T04:31:56;20.60;99.90
5802;DHT22;2927;49.366;8.530;2023-06-22T04:34:24;20.80;99.90
5802;DHT22;2927;49.366;8.530;2023-06-22T04:36:52;20.80;99.90
5802;DHT22;2927;49.366;8.530;2023-06-22T04:39:17;20.90;99.90
5802;DHT22;2927;49.366;8.530;2023-06-22T04:41:44;21.00;99.90
5802;DHT22;2927;49.366;8.530;2023-06-22T04:44:19;21.10;99.90
5802;DHT22;2927;49.366;8.530;2023-06-22T04:47:01;21.20;99.90
5802;DHT22;2927;49.366;8.530;2023-06-22T04:49:30;21.30;99.90
5802;DHT22;2927;49.366;8.530;2023-06-22T04:52:00;21.50;99.90
5802;DHT22;2927;49.366;8.530;2023-06-22T04:54:25;21.50;99.90
5802;DHT22;2927;49.366;8.530;2023-06-22T04:56:51;21.60;99.90
5802;DHT22;2927;49.366;8.530;2023-06-22T04:59:23;21.70;99.90
5802;DHT22;2927;49.366;8.530;2023-06-22T05:02:00;21.90;99.90
5802;DHT22;2927;49.366;8.530;2023-06-22T05:04:29;21.90;99.90
5802;DHT22;2927;49.366;8.530;2023-06-22T05:06:59;22.00;99.90
5802;DHT22;2927;49.366;8.530;2023-06-22T05:09:25;22.20;99.90
5802;DHT22;2927;49.366;8.530;2023-06-22T05:11:51;22.30;99.90
5802;DHT22;2927;49.366;8.530;2023-06-22T05:14:17;22.50;99.90
5802;DHT22;2927;49.366;8.530;2023-06-22T05:16:43;22.60;99.90
5802;DHT22;2927;49.366;8.530;2023-06-22T05:19:10;22.70;99.90
5802;DHT22;2927;49.366;8.530;2023-06-22T05:21:35;22.80;99.90
5802;DHT22;2927;49.366;8.530;2023-06-22T05:24:01;22.90;99.90
5802;DHT22;2927;49.366;8.530;2023-06-22T05:26:29;23.00;99.90
5802;DHT22;2927;49.366;8.530;2023-06-22T05:28:56;23.20;99.90
5802;DHT22;2927;49.366;8.530;2023-06-22T05:31:21;23.30;99.90
5802;DHT22;2927;49.366;8.530;2023-06-22T05:33:48;23.40;99.90
5802;DHT22;2927;49.366;8.530;2023-06-22T05:36:14;23.60;99.90
5802;DHT22;2927;49.366;8.530;2023-06-22T05:38:40;23.90;99.90
5802;DHT22;2927;49.366;8.530;2023-06-22T05:41:06;24.10;99.90
5802;DHT22;2927;49.366;8.530;2023-06-22T05:43:32;24.30;99.90
5802;DHT22;2927;49.366;8.530;2023-06-22T05:45:59;24.50;99.90
5802;DHT22;2927;49.366;8.530;2023-06-22T05:48:25;24.80;99.90
5802;DHT22;2927;49.366;8.530;2023-06-22T05:50:50;25.00;1.00
5802;DHT22;2927;49.366;8.530;2023-06-22T05:53:16;25.10;1.00
5802;DHT22;2927;49.366;8.530;2023-06-22T05:55:41;25.60;1.00
5802;DHT22;2927;49.366;8.530;2023-06-22T05:58:08;26.10;1.00
5802;DHT22;2927;49.366;8.530;2023-06-22T06:00:34;27.70;1.00
5802;DHT22;2927;49.366;8.530;2023-06-22T06:03:00;29.10;99.90
5802;DHT22;2927;49.366;8.530;2023-06-22T06:05:32;29.70;1.00
5802;DHT22;2927;49.366;8.530;2023-06-22T06:08:03;30.40;1.00
5802;DHT22;2927;49.366;8.530;2023-06-22T06:10:30;30.60;99.90
5802;DHT22;2927;49.366;8.530;2023-06-22T06:12:56;30.90;99.90
5802;DHT22;2927;49.366;8.530;2023-06-22T06:15:22;31.10;99.90
5802;DHT22;2927;49.366;8.530;2023-06-22T06:17:52;32.00;99.90
5802;DHT22;2927;49.366;8.530;2023-06-22T06:20:21;32.30;99.90
5802;DHT22;2927;49.366;8.530;2023-06-22T06:22:49;32.20;99.90
5802;DHT22;2927;49.366;8.530;2023-06-22T06:25:15;32.20;54.80
5802;DHT22;2927;49.366;8.530;2023-06-22T06:27:49;31.50;64.30
5802;DHT22;2927;49.366;8.530;2023-06-22T06:30:16;30.90;99.90
5802;DHT22;2927;49.366;8.530;2023-06-22T06:32:42;30.90;99.90
5802;DHT22;2927;49.366;8.530;2023-06-22T06:35:09;31.30;99.90
5802;DHT22;2927;49.366;8.530;2023-06-22T06:37:41;30.80;99.90
5802;DHT22;2927;49.366;8.530;2023-06-22T06:40:08;31.40;98.00
5802;DHT22;2927;49.366;8.530;2023-06-22T06:42:42;31.30;60.30
5802;DHT22;2927;49.366;8.530;2023-06-22T06:45:19;30.90;99.90
5802;DHT22;2927;49.366;8.530;2023-06-22T06:47:46;30.90;99.90
5802;DHT22;2927;49.366;8.530;2023-06-22T06:50:12;30.90;99.40
5802;DHT22;2927;49.366;8.530;2023-06-22T06:52:37;30.90;99.90
5802;DHT22;2927;49.366;8.530;2023-06-22T06:55:04;31.50;82.30
5802;DHT22;2927;49.366;8.530;2023-06-22T06:57:30;31.70;27.50
5802;DHT22;2927;49.366;8.530;2023-06-22T06:59:56;31.80;18.90
5802;DHT22;2927;49.366;8.530;2023-06-22T07:02:23;31.70;27.10
5802;DHT22;2927;49.366;8.530;2023-06-22T07:04:48;32.00;1.00
5802;DHT22;2927;49.366;8.530;2023-06-22T07:07:14;32.00;36.10
5802;DHT22;2927;49.366;8.530;2023-06-22T07:09:40;31.90;30.00
5802;DHT22;2927;49.366;8.530;2023-06-22T07:12:06;31.30;1.00
5802;DHT22;2927;49.366;8.530;2023-06-22T07:14:31;31.20;47.10
5802;DHT22;2927;49.366;8.530;2023-06-22T07:16:57;31.60;6.10
5802;DHT22;2927;49.366;8.530;2023-06-22T07:19:27;31.70;1.00
5802;DHT22;2927;49.366;8.530;2023-06-22T07:21:53;31.70;5.70
5802;DHT22;2927;49.366;8.530;2023-06-22T07:24:20;31.30;9.10
5802;DHT22;2927;49.366;8.530;2023-06-22T07:26:49;31.30;11.20
5802;DHT22;2927;49.366;8.530;2023-06-22T07:29:22;31.40;15.40
5802;DHT22;2927;49.366;8.530;2023-06-22T07:31:50;31.20;6.90
5802;DHT22;2927;49.366;8.530;2023-06-22T07:34:17;31.20;8.70
5802;DHT22;2927;49.366;8.530;2023-06-22T07:36:43;31.60;19.90
5802;DHT22;2927;49.366;8.530;2023-06-22T07:39:09;31.90;1.00
5802;DHT22;2927;49.366;8.530;2023-06-22T07:41:34;32.50;1.00
5802;DHT22;2927;49.366;8.530;2023-06-22T07:44:00;32.80;1.00
5802;DHT22;2927;49.366;8.530;2023-06-22T07:46:26;32.20;1.00
5802;DHT22;2927;49.366;8.530;2023-06-22T07:48:51;32.60;1.00
5802;DHT22;2927;49.366;8.530;2023-06-22T07:51:17;32.90;1.00
5802;DHT22;2927;49.366;8.530;2023-06-22T07:53:43;33.20;1.00
5802;DHT22;2927;49.366;8.530;2023-06-22T07:56:12;32.60;1.00
5802;DHT22;2927;49.366;8.530;2023-06-22T07:58:38;32.30;1.00
5802;DHT22;2927;49.366;8.530;2023-06-22T08:01:04;33.20;1.00
5802;DHT22;2927;49.366;8.530;2023-06-22T08:03:30;33.50;1.00
5802;DHT22;2927;49.366;8.530;2023-06-22T08:05:55;33.50;1.00
5802;DHT22;2927;49.366;8.530;2023-06-22T08:08:21;33.50;1.00
5802;DHT22;2927;49.366;8.530;2023-06-22T08:10:47;33.60;1.00
5802;DHT22;2927;49.366;8.530;2023-06-22T08:13:12;33.70;1.00
5802;DHT22;2927;49.366;8.530;2023-06-22T08:15:38;34.20;1.00
5802;DHT22;2927;49.366;8.530;2023-06-22T08:18:04;34.20;1.00
5802;DHT22;2927;49.366;8.530;2023-06-22T08:20:30;34.70;1.00
5802;DHT22;2927;49.366;8.530;2023-06-22T08:22:56;33.10;1.00
5802;DHT22;2927;49.366;8.530;2023-06-22T08:25:25;32.80;1.00
5802;DHT22;2927;49.366;8.530;2023-06-22T08:27:51;32.90;1.00
5802;DHT22;2927;49.366;8.530;2023-06-22T08:30:17;33.20;1.00
5802;DHT22;2927;49.366;8.530;2023-06-22T08:32:44;34.00;1.00
5802;DHT22;2927;49.366;8.530;2023-06-22T08:35:09;33.90;1.00
5802;DHT22;2927;49.366;8.530;2023-06-22T08:37:35;34.60;1.00
5802;DHT22;2927;49.366;8.530;2023-06-22T08:40:03;34.70;1.00
5802;DHT22;2927;49.366;8.530;2023-06-22T08:42:36;34.70;1.00
5802;DHT22;2927;49.366;8.530;2023-06-22T08:45:02;34.80;1.00
5802;DHT22;2927;49.366;8.530;2023-06-22T08:47:28;34.70;1.00
5802;DHT22;2927;49.366;8.530;2023-06-22T08:49:54;34.60;1.00
5802;DHT22;2927;49.366;8.530;2023-06-22T08:52:19;35.10;1.00
5802;DHT22;2927;49.366;8.530;2023-06-22T08:54:45;35.10;1.00
5802;DHT22;2927;49.366;8.530;2023-06-22T08:57:11;35.40;1.00
5802;DHT22;2927;49.366;8.530;2023-06-22T08:59:36;35.20;1.00
5802;DHT22;2927;49.366;8.530;2023-06-22T09:02:02;35.70;1.00
5802;DHT22;2927;49.366;8.530;2023-06-22T09:04:28;35.60;1.00
5802;DHT22;2927;49.366;8.530;2023-06-22T09:06:53;35.60;1.00
5802;DHT22;2927;49.366;8.530;2023-06-22T09:09:20;35.30;1.00
5802;DHT22;2927;49.366;8.530;2023-06-22T09:11:46;35.40;1.00
5802;DHT22;2927;49.366;8.530;2023-06-22T09:14:12;34.50;1.00
5802;DHT22;2927;49.366;8.530;2023-06-22T09:16:38;34.00;1.00
5802;DHT22;2927;49.366;8.530;2023-06-22T09:19:04;34.60;1.00
5802;DHT22;2927;49.366;8.530;2023-06-22T09:21:29;34.60;1.00
5802;DHT22;2927;49.366;8.530;2023-06-22T09:23:55;34.30;1.00
5802;DHT22;2927;49.366;8.530;2023-06-22T09:26:21;33.70;1.00
5802;DHT22;2927;49.366;8.530;2023-06-22T09:28:47;33.20;1.00
5802;DHT22;2927;49.366;8.530;2023-06-22T09:31:13;33.00;1.00
5802;DHT22;2927;49.366;8.530;2023-06-22T09:33:40;32.80;1.00
5802;DHT22;2927;49.366;8.530;2023-06-22T09:36:06;32.60;1.00
5802;DHT22;2927;49.366;8.530;2023-06-22T09:38:38;33.60;1.00
5802;DHT22;2927;49.366;8.530;2023-06-22T09:41:04;34.40;1.00
5802;DHT22;2927;49.366;8.530;2023-06-22T09:43:32;34.60;1.00
5802;DHT22;2927;49.366;8.530;2023-06-22T09:46:00;35.00;1.00
5802;DHT22;2927;49.366;8.530;2023-06-22T09:48:27;34.90;1.00
5802;DHT22;2927;49.366;8.530;2023-06-22T09:50:53;35.10;1.00
5802;DHT22;2927;49.366;8.530;2023-06-22T09:53:19;35.20;1.00
5802;DHT22;2927;49.366;8.530;2023-06-22T09:55:44;35.20;1.00
5802;DHT22;2927;49.366;8.530;2023-06-22T09:58:10;34.90;1.00
5802;DHT22;2927;49.366;8.530;2023-06-22T10:00:35;35.40;1.00
5802;DHT22;2927;49.366;8.530;2023-06-22T10:03:01;35.90;1.00
5802;DHT22;2927;49.366;8.530;2023-06-22T10:05:26;35.40;1.00
5802;DHT22;2927;49.366;8.530;2023-06-22T10:07:52;35.10;1.00
5802;DHT22;2927;49.366;8.530;2023-06-22T10:10:18;34.20;1.00
5802;DHT22;2927;49.366;8.530;2023-06-22T10:12:48;33.20;1.00
5802;DHT22;2927;49.366;8.530;2023-06-22T10:15:19;32.80;1.00
5802;DHT22;2927;49.366;8.530;2023-06-22T10:17:45;33.20;1.00
5802;DHT22;2927;49.366;8.530;2023-06-22T10:20:10;33.20;1.00
5802;DHT22;2927;49.366;8.530;2023-06-22T10:22:41;33.40;1.00
5802;DHT22;2927;49.366;8.530;2023-06-22T10:25:08;33.10;1.00
5802;DHT22;2927;49.366;8.530;2023-06-22T10:27:34;32.50;1.00
5802;DHT22;2927;49.366;8.530;2023-06-22T10:30:00;32.00;1.00
5802;DHT22;2927;49.366;8.530;2023-06-22T10:32:26;32.10;1.00
5802;DHT22;2927;49.366;8.530;2023-06-22T10:34:54;32.00;1.00
5802;DHT22;2927;49.366;8.530;2023-06-22T10:37:19;31.80;1.00
5802;DHT22;2927;49.366;8.530;2023-06-22T10:39:45;31.50;1.00
5802;DHT22;2927;49.366;8.530;2023-06-22T10:42:11;31.40;1.00
5802;DHT22;2927;49.366;8.530;2023-06-22T10:44:37;31.70;1.00
5802;DHT22;2927;49.366;8.530;2023-06-22T10:47:04;32.00;1.00
5802;DHT22;2927;49.366;8.530;2023-06-22T10:49:30;32.40;1.00
5802;DHT22;2927;49.366;8.530;2023-06-22T10:51:55;32.50;1.00
5802;DHT22;2927;49.366;8.530;2023-06-22T10:54:21;33.00;1.00
5802;DHT22;2927;49.366;8.530;2023-06-22T10:56:46;33.10;1.00
5802;DHT22;2927;49.366;8.530;2023-06-22T10:59:12;32.70;1.00
5802;DHT22;2927;49.366;8.530;2023-06-22T11:01:37;32.90;1.00
5802;DHT22;2927;49.366;8.530;2023-06-22T11:04:03;32.90;1.00
5802;DHT22;2927;49.366;8.530;2023-06-22T11:06:29;33.30;1.00
5802;DHT22;2927;49.366;8.530;2023-06-22T11:08:54;33.40;1.00
5802;DHT22;2927;49.366;8.530;2023-06-22T11:11:20;33.60;1.00
5802;DHT22;2927;49.366;8.530;2023-06-22T11:13:45;33.40;1.00
5802;DHT22;2927;49.366;8.530;2023-06-22T11:16:11;33.40;1.00
5802;DHT22;2927;49.366;8.530;2023-06-22T11:18:37;33.10;1.00
5802;DHT22;2927;49.366;8.530;2023-06-22T11:21:03;32.70;1.00
5802;DHT22;2927;49.366;8.530;2023-06-22T11:23:28;32.70;1.00
5802;DHT22;2927;49.366;8.530;2023-06-22T11:25:54;32.50;1.00
5802;DHT22;2927;49.366;8.530;2023-06-22T11:28:20;32.60;1.00
5802;DHT22;2927;49.366;8.530;2023-06-22T11:30:45;32.40;1.00
5802;DHT22;2927;49.366;8.530;2023-06-22T11:33:11;32.50;1.00
5802;DHT22;2927;49.366;8.530;2023-06-22T11:35:37;32.50;1.00
5802;DHT22;2927;49.366;8.530;2023-06-22T11:38:02;32.60;1.00
5802;DHT22;2927;49.366;8.530;2023-06-22T11:40:29;33.00;1.00
5802;DHT22;2927;49.366;8.530;2023-06-22T11:42:55;32.80;1.00
5802;DHT22;2927;49.366;8.530;2023-06-22T11:45:20;33.00;1.00
5802;DHT22;2927;49.366;8.530;2023-06-22T11:47:46;32.70;1.00
5802;DHT22;2927;49.366;8.530;2023-06-22T11:50:12;32.70;1.00
5802;DHT22;2927;49.366;8.530;2023-06-22T11:52:37;32.70;1.00
5802;DHT22;2927;49.366;8.530;2023-06-22T11:55:03;32.70;1.00
5802;DHT22;2927;49.366;8.530;2023-06-22T11:57:32;32.80;1.00
5802;DHT22;2927;49.366;8.530;2023-06-22T11:59:58;32.80;1.00
5802;DHT22;2927;49.366;8.530;2023-06-22T12:02:23;32.90;1.00
5802;DHT22;2927;49.366;8.530;2023-06-22T12:04:49;32.60;1.00
5802;DHT22;2927;49.366;8.530;2023-06-22T12:07:17;32.40;1.00
5802;DHT22;2927;49.366;8.530;2023-06-22T12:09:43;32.60;1.00
5802;DHT22;2927;49.366;8.530;2023-06-22T12:12:09;32.40;1.00
5802;DHT22;2927;49.366;8.530;2023-06-22T12:14:35;32.60;1.00
5802;DHT22;2927;49.366;8.530;2023-06-22T12:17:01;32.70;1.00
5802;DHT22;2927;49.366;8.530;2023-06-22T12:19:26;32.70;1.00
5802;DHT22;2927;49.366;8.530;2023-06-22T12:21:52;32.80;1.00
5802;DHT22;2927;49.366;8.530;2023-06-22T12:24:17;33.00;1.00
5802;DHT22;2927;49.366;8.530;2023-06-22T12:26:43;33.30;1.00
5802;DHT22;2927;49.366;8.530;2023-06-22T12:29:08;33.70;1.00
5802;DHT22;2927;49.366;8.530;2023-06-22T12:31:35;33.70;1.00
5802;DHT22;2927;49.366;8.530;2023-06-22T12:34:02;33.80;1.00
5802;DHT22;2927;49.366;8.530;2023-06-22T12:36:46;33.40;1.00
5802;DHT22;2927;49.366;8.530;2023-06-22T12:39:15;33.60;1.00
5802;DHT22;2927;49.366;8.530;2023-06-22T12:41:40;34.00;1.00
5802;DHT22;2927;49.366;8.530;2023-06-22T12:44:06;34.10;1.00
5802;DHT22;2927;49.366;8.530;2023-06-22T12:46:31;33.80;1.00
5802;DHT22;2927;49.366;8.530;2023-06-22T12:49:03;33.80;1.00
5802;DHT22;2927;49.366;8.530;2023-06-22T12:51:29;33.90;1.00
5802;DHT22;2927;49.366;8.530;2023-06-22T12:53:55;33.80;1.00
5802;DHT22;2927;49.366;8.530;2023-06-22T12:56:20;33.70;1.00
5802;DHT22;2927;49.366;8.530;2023-06-22T12:58:46;33.60;1.00
5802;DHT22;2927;49.366;8.530;2023-06-22T13:01:11;33.40;1.00
5802;DHT22;2927;49.366;8.530;2023-06-22T13:03:37;33.30;1.00
5802;DHT22;2927;49.366;8.530;2023-06-22T13:06:03;33.40;1.00
5802;DHT22;2927;49.366;8.530;2023-06-22T13:08:29;33.30;1.00
5802;DHT22;2927;49.366;8.530;2023-06-22T13:10:54;33.50;1.00
5802;DHT22;2927;49.366;8.530;2023-06-22T13:13:23;33.60;1.00
5802;DHT22;2927;49.366;8.530;2023-06-22T13:15:55;33.20;1.00
5802;DHT22;2927;49.366;8.530;2023-06-22T13:18:20;33.00;1.00
5802;DHT22;2927;49.366;8.530;2023-06-22T13:20:46;33.10;1.00
5802;DHT22;2927;49.366;8.530;2023-06-22T13:23:12;32.90;1.00
5802;DHT22;2927;49.366;8.530;2023-06-22T13:25:38;32.60;1.00
5802;DHT22;2927;49.366;8.530;2023-06-22T13:28:03;32.50;1.00
5802;DHT22;2927;49.366;8.530;2023-06-22T13:30:29;32.40;1.00
5802;DHT22;2927;49.366;8.530;2023-06-22T13:32:55;32.70;1.00
5802;DHT22;2927;49.366;8.530;2023-06-22T13:35:21;33.10;1.00
5802;DHT22;2927;49.366;8.530;2023-06-22T13:37:47;33.20;1.00
5802;DHT22;2927;49.366;8.530;2023-06-22T13:40:12;33.20;1.00
5802;DHT22;2927;49.366;8.530;2023-06-22T13:42:38;33.20;1.00
5802;DHT22;2927;49.366;8.530;2023-06-22T13:45:07;33.50;1.00
5802;DHT22;2927;49.366;8.530;2023-06-22T13:47:32;33.60;1.00
5802;DHT22;2927;49.366;8.530;2023-06-22T13:49:58;34.00;1.00
5802;DHT22;2927;49.366;8.530;2023-06-22T13:52:24;34.20;1.00
5802;DHT22;2927;49.366;8.530;2023-06-22T13:54:50;34.30;1.00
5802;DHT22;2927;49.366;8.530;2023-06-22T13:57:15;33.90;1.00
5802;DHT22;2927;49.366;8.530;2023-06-22T13:59:41;33.70;1.00
5802;DHT22;2927;49.366;8.530;2023-06-22T14:02:06;33.40;1.00
5802;DHT22;2927;49.366;8.530;2023-06-22T14:04:32;33.00;1.00
5802;DHT22;2927;49.366;8.530;2023-06-22T14:06:58;32.70;1.00
5802;DHT22;2927;49.366;8.530;2023-06-22T14:09:23;32.40;1.00
5802;DHT22;2927;49.366;8.530;2023-06-22T14:11:49;32.30;1.00
5802;DHT22;2927;49.366;8.530;2023-06-22T14:14:15;32.30;1.00
5802;DHT22;2927;49.366;8.530;2023-06-22T14:16:40;32.20;1.00
5802;DHT22;2927;49.366;8.530;2023-06-22T14:19:06;32.10;1.00
5802;DHT22;2927;49.366;8.530;2023-06-22T14:21:31;31.90;1.00
5802;DHT22;2927;49.366;8.530;2023-06-22T14:23:57;31.80;1.00
5802;DHT22;2927;49.366;8.530;2023-06-22T14:26:22;31.60;1.00
5802;DHT22;2927;49.366;8.530;2023-06-22T14:28:48;31.70;1.00
5802;DHT22;2927;49.366;8.530;2023-06-22T14:31:16;31.50;16.50
5802;DHT22;2927;49.366;8.530;2023-06-22T14:33:46;31.40;99.90
5802;DHT22;2927;49.366;8.530;2023-06-22T14:36:12;31.20;76.70
5802;DHT22;2927;49.366;8.530;2023-06-22T14:38:38;31.10;99.90
5802;DHT22;2927;49.366;8.530;2023-06-22T14:41:03;31.00;99.90
5802;DHT22;2927;49.366;8.530;2023-06-22T14:43:29;30.80;99.90
5802;DHT22;2927;49.366;8.530;2023-06-22T14:45:54;30.60;99.90
5802;DHT22;2927;49.366;8.530;2023-06-22T14:48:20;30.40;99.90
5802;DHT22;2927;49.366;8.530;2023-06-22T14:50:46;30.20;99.90
5802;DHT22;2927;49.366;8.530;2023-06-22T14:53:11;30.10;1.00
5802;DHT22;2927;49.366;8.530;2023-06-22T14:55:37;29.90;1.00
5802;DHT22;2927;49.366;8.530;2023-06-22T14:58:02;29.70;1.00
5802;DHT22;2927;49.366;8.530;2023-06-22T15:00:28;29.60;1.00
5802;DHT22;2927;49.366;8.530;2023-06-22T15:02:53;29.60;1.00
5802;DHT22;2927;49.366;8.530;2023-06-22T15:05:19;29.60;1.00
5802;DHT22;2927;49.366;8.530;2023-06-22T15:07:44;29.70;1.00
5802;DHT22;2927;49.366;8.530;2023-06-22T15:10:10;29.80;1.00
5802;DHT22;2927;49.366;8.530;2023-06-22T15:12:36;29.90;1.00
5802;DHT22;2927;49.366;8.530;2023-06-22T15:15:01;30.00;1.00
5802;DHT22;2927;49.366;8.530;2023-06-22T15:17:27;30.10;1.00
5802;DHT22;2927;49.366;8.530;2023-06-22T15:19:58;30.20;1.00
5802;DHT22;2927;49.366;8.530;2023-06-22T15:22:23;30.40;1.00
5802;DHT22;2927;49.366;8.530;2023-06-22T15:24:49;30.70;1.00
5802;DHT22;2927;49.366;8.530;2023-06-22T15:27:15;30.90;99.90
5802;DHT22;2927;49.366;8.530;2023-06-22T15:29:41;31.20;99.90
5802;DHT22;2927;49.366;8.530;2023-06-22T15:32:07;31.20;99.90
5802;DHT22;2927;49.366;8.530;2023-06-22T15:34:33;31.30;99.90
5802;DHT22;2927;49.366;8.530;2023-06-22T15:36:59;31.40;99.90
5802;DHT22;2927;49.366;8.530;2023-06-22T15:39:25;31.40;99.90
5802;DHT22;2927;49.366;8.530;2023-06-22T15:41:52;31.50;99.90
5802;DHT22;2927;49.366;8.530;2023-06-22T15:44:22;31.50;99.90
5802;DHT22;2927;49.366;8.530;2023-06-22T15:46:47;31.40;99.90
5802;DHT22;2927;49.366;8.530;2023-06-22T15:49:17;31.40;99.90
5802;DHT22;2927;49.366;8.530;2023-06-22T15:51:48;31.50;99.90
5802;DHT22;2927;49.366;8.530;2023-06-22T15:54:14;31.60;99.90
5802;DHT22;2927;49.366;8.530;2023-06-22T15:56:39;31.70;79.00
5802;DHT22;2927;49.366;8.530;2023-06-22T15:59:05;31.80;77.50
5802;DHT22;2927;49.366;8.530;2023-06-22T16:01:31;31.80;42.80
5802;DHT22;2927;49.366;8.530;2023-06-22T16:03:56;31.70;43.50
5802;DHT22;2927;49.366;8.530;2023-06-22T16:06:22;31.50;70.00
5802;DHT22;2927;49.366;8.530;2023-06-22T16:08:47;31.50;76.60
5802;DHT22;2927;49.366;8.530;2023-06-22T16:11:13;31.40;99.90
5802;DHT22;2927;49.366;8.530;2023-06-22T16:13:39;31.40;99.90
5802;DHT22;2927;49.366;8.530;2023-06-22T16:16:05;31.00;99.90